Firestone Park, California
Current Conditions -  °F | °C
As of 7:47 PM on Friday 19 Dec 2014 (Local Time) from KCQT Reporting Station
Clear Clear  
Wind Chill: 57°   Ceiling: Unl
Heat Index: 57°   Visibility: 10mi
Dew Point: 50°   Wind: 0mph
Humidity: 77%   Direction: NA
Pressure: 30.16"   Gusts: NA
Location:  33.9733°N, 118.248°W
Report Text: KCQT 200347Z AUTO 00000KT 10SM CLR 14/10 A3016 RMK AO2 SLP214 T01390100
Loading
Personal Weather Stations






























Interactive Weather Map New forecast layout! Learn more

10-Day Weather Forecast

Advertisements
Track Severe Weather on mobile